Donnellson, IL

08:21 AM CDT on august 23, 2014 (GMT -0500)
Litchfield | Change Station
CLOSE
Current Station
Aeroport
Location: Litchfield,
Elevation: 689 ft
Nearby Weather Stations
Consiliere activă: Heat Advisory

Elev 689 ft 39.16 °N, 89.67 °W | Updated 26 minutes ago

Clear
Cer senin
76 °F
Feels Like 76 °F
N
4
Vânt variabil Vânt from sud

astăzi
High -- | Low -- °F
--% Chance of Precip.
Ieri
High -- | Low -- °F
Precip. -- inch
6:18 AM 7:41 PM
Semilună în descreştere, 4% visible
Presiunea 29.96 inch
Vizibilitatea 4.0 mile
Nori Cer senin
Punctul de rouă 75 °F
Umiditatea 99%
Precipitaţii 0.00 inch
Adâncimea zăpezii Not available.
UV 1 out of 12
Pollen 10.90 out of 12
Calitatea aerului Not available.
Flu Activity Not available.
METAR K3LF 231255Z AUTO 19003KT 4SM BR CLR 24/24 A2996 RMK AO2 T02430241

More Conditions Fewer Conditions

Presiunea 29.96 inch
Vizibilitatea 4.0 mile
Nori Cer senin
Punctul de rouă 75 °F
Umiditatea 99%
Precipitaţii 0.00 inch
Adâncimea zăpezii Not available.
UV 1 out of 12
Pollen 10.90 out of 12
Calitatea aerului Not available.
Flu Activity Not available.
METAR K3LF 231255Z AUTO 19003KT 4SM BR CLR 24/24 A2996 RMK AO2 T02430241

More Conditions Fewer Conditions

10-Day Weather Forecast

Almanac

Astronomie

Aug. 23, 2014 Răsărit Apus
Timpul Actual 6:18 AM CDT 7:41 PM CDT
Crepusculul Civil 5:50 AM CDT 8:09 PM CDT
Crepusculul nautic 5:17 AM CDT 8:43 PM CDT
Răsărit Astronomic 4:41 AM CDT 9:18 PM CDT
Luna 4:35 AM CDT 6:26 PM CDT
Durata zilei lumină 14h 19m
Lungimea zilei
13h 23m
Tomorrow will be 2m 20s shorter.
Semilună în descreştere, 4% of the Moon is Illuminated
astăzi
Semilună în descreştere
Aug 25
New
Sep 2
Primul pătrar
Sep 8
Lună plină
Sep 15
Ultimul pătrar

Extremele de azi

State Highs State Lows

Community

WunderPhotos

Upload Photos

1,746,451 photos uploaded!

WunderBlogs® & News

By Dr. Jeff Masters
Director of Meteorology, Weather Underground
By Kari Strenfel
Meteorologist, Weather Underground
By Christopher C. Burt
Weather Historian, Weather Underground
August 23, 2014
August 23, 2014
August 23, 2014

Nearby

Adâncimea zapezii

Station Depth Elevation
No new snow has been reported.

Earthquake Activity

Oraş Distance Mag. Time & Date
No recent earthquake activity has been reported nearby.
Minimum magnitude displayed is 2.5.

Coastal Water Temperatures

Locul Temperatura
No Stations Reporting

Nearby Weather Stations